sensor_id;sensor_type;location;lat;lon;timestamp;pressure;altitude;pressure_sealevel;temperature;humidity
53932;BME280;39844;52.496;13.482;2022-12-15T00:00:08;100303.66;;;-7.13;86.41
53932;BME280;39844;52.496;13.482;2022-12-15T00:02:33;100307.69;;;-7.16;86.25
53932;BME280;39844;52.496;13.482;2022-12-15T00:04:58;100303.19;;;-7.20;86.33
53932;BME280;39844;52.496;13.482;2022-12-15T00:07:24;100304.88;;;-7.21;86.50
53932;BME280;39844;52.496;13.482;2022-12-15T00:09:49;100303.09;;;-7.22;86.79
53932;BME280;39844;52.496;13.482;2022-12-15T00:12:14;100308.13;;;-7.23;86.60
53932;BME280;39844;52.496;13.482;2022-12-15T00:14:39;100312.31;;;-7.24;86.74
53932;BME280;39844;52.496;13.482;2022-12-15T00:17:05;100308.19;;;-7.22;87.39
53932;BME280;39844;52.496;13.482;2022-12-15T00:19:30;100316.72;;;-7.21;86.92
53932;BME280;39844;52.496;13.482;2022-12-15T00:21:55;100321.94;;;-7.20;86.92
53932;BME280;39844;52.496;13.482;2022-12-15T00:24:21;100329.66;;;-7.18;86.83
53932;BME280;39844;52.496;13.482;2022-12-15T00:26:46;100321.81;;;-7.21;86.66
53932;BME280;39844;52.496;13.482;2022-12-15T00:29:11;100330.28;;;-7.22;86.29
53932;BME280;39844;52.496;13.482;2022-12-15T00:31:36;100338.78;;;-7.22;86.66
53932;BME280;39844;52.496;13.482;2022-12-15T00:34:02;100341.25;;;-7.23;86.64
53932;BME280;39844;52.496;13.482;2022-12-15T00:36:27;100331.06;;;-7.23;86.38
53932;BME280;39844;52.496;13.482;2022-12-15T00:38:52;100339.59;;;-7.23;86.57
53932;BME280;39844;52.496;13.482;2022-12-15T00:41:18;100334.38;;;-7.24;86.60
53932;BME280;39844;52.496;13.482;2022-12-15T00:43:44;100337.81;;;-7.24;86.50
53932;BME280;39844;52.496;13.482;2022-12-15T00:46:09;100333.59;;;-7.23;86.35
53932;BME280;39844;52.496;13.482;2022-12-15T00:48:35;100320.84;;;-7.23;86.17
53932;BME280;39844;52.496;13.482;2022-12-15T00:51:00;100334.38;;;-7.24;86.00
53932;BME280;39844;52.496;13.482;2022-12-15T00:53:25;100331.84;;;-7.24;85.81
53932;BME280;39844;52.496;13.482;2022-12-15T00:55:51;100321.63;;;-7.24;86.11
53932;BME280;39844;52.496;13.482;2022-12-15T00:58:16;100336.94;;;-7.24;86.07
53932;BME280;39844;52.496;13.482;2022-12-15T01:00:41;100338.69;;;-7.23;86.25
53932;BME280;39844;52.496;13.482;2022-12-15T01:03:16;100346.34;;;-7.23;86.59
53932;BME280;39844;52.496;13.482;2022-12-15T01:05:41;100343.03;;;-7.22;86.58
53932;BME280;39844;52.496;13.482;2022-12-15T01:08:06;100354.00;;;-7.23;86.39
53932;BME280;39844;52.496;13.482;2022-12-15T01:10:32;100359.28;;;-7.20;87.35
53932;BME280;39844;52.496;13.482;2022-12-15T01:12:57;100354.19;;;-7.20;86.92
53932;BME280;39844;52.496;13.482;2022-12-15T01:15:23;100355.78;;;-7.22;86.56
53932;BME280;39844;52.496;13.482;2022-12-15T01:17:48;100355.78;;;-7.22;86.82
53932;BME280;39844;52.496;13.482;2022-12-15T01:20:13;100346.44;;;-7.22;87.10
53932;BME280;39844;52.496;13.482;2022-12-15T01:22:40;100350.81;;;-7.19;87.34
53932;BME280;39844;52.496;13.482;2022-12-15T01:25:07;100358.59;;;-7.18;87.64
53932;BME280;39844;52.496;13.482;2022-12-15T01:27:33;100358.47;;;-7.19;87.17
53932;BME280;39844;52.496;13.482;2022-12-15T01:29:58;100348.97;;;-7.22;86.83
53932;BME280;39844;52.496;13.482;2022-12-15T01:32:24;100342.22;;;-7.21;87.21
53932;BME280;39844;52.496;13.482;2022-12-15T01:34:49;100349.88;;;-7.21;87.26
53932;BME280;39844;52.496;13.482;2022-12-15T01:37:15;100353.09;;;-7.24;86.95
53932;BME280;39844;52.496;13.482;2022-12-15T01:39:40;100344.50;;;-7.26;86.88
53932;BME280;39844;52.496;13.482;2022-12-15T01:42:09;100340.09;;;-7.28;87.20
53932;BME280;39844;52.496;13.482;2022-12-15T01:44:36;100346.09;;;-7.28;87.18
53932;BME280;39844;52.496;13.482;2022-12-15T01:47:02;100345.28;;;-7.27;87.70
53932;BME280;39844;52.496;13.482;2022-12-15T01:49:28;100343.41;;;-7.29;87.00
53932;BME280;39844;52.496;13.482;2022-12-15T01:51:57;100332.19;;;-7.33;86.76
53932;BME280;39844;52.496;13.482;2022-12-15T01:54:41;100339.03;;;-7.32;87.68
53932;BME280;39844;52.496;13.482;2022-12-15T01:57:10;100340.03;;;-7.30;87.56
53932;BME280;39844;52.496;13.482;2022-12-15T01:59:48;100354.44;;;-7.30;87.61
53932;BME280;39844;52.496;13.482;2022-12-15T02:02:17;100340.88;;;-7.29;87.97
53932;BME280;39844;52.496;13.482;2022-12-15T02:04:44;100345.19;;;-7.28;87.83
53932;BME280;39844;52.496;13.482;2022-12-15T02:07:13;100346.97;;;-7.27;87.99
53932;BME280;39844;52.496;13.482;2022-12-15T02:09:41;100355.19;;;-7.31;87.33
53932;BME280;39844;52.496;13.482;2022-12-15T02:14:54;100348.69;;;-7.41;86.94
53932;BME280;39844;52.496;13.482;2022-12-15T02:20:18;100349.38;;;-7.43;87.69
53932;BME280;39844;52.496;13.482;2022-12-15T02:28:12;100363.28;;;-7.38;88.09
53932;BME280;39844;52.496;13.482;2022-12-15T02:35:52;100368.38;;;-7.38;87.97
53932;BME280;39844;52.496;13.482;2022-12-15T02:38:36;100371.00;;;-7.37;88.26
53932;BME280;39844;52.496;13.482;2022-12-15T02:41:04;100376.78;;;-7.39;87.68
53932;BME280;39844;52.496;13.482;2022-12-15T02:43:32;100386.97;;;-7.39;88.29
53932;BME280;39844;52.496;13.482;2022-12-15T02:46:28;100398.19;;;-7.37;88.49
53932;BME280;39844;52.496;13.482;2022-12-15T02:49:05;100392.28;;;-7.36;88.71
53932;BME280;39844;52.496;13.482;2022-12-15T02:54:34;100410.09;;;-7.36;88.75
53932;BME280;39844;52.496;13.482;2022-12-15T02:57:19;100407.56;;;-7.36;88.53
53932;BME280;39844;52.496;13.482;2022-12-15T03:02:19;100415.53;;;-7.45;87.74
53932;BME280;39844;52.496;13.482;2022-12-15T03:04:45;100420.53;;;-7.46;87.84
53932;BME280;39844;52.496;13.482;2022-12-15T03:07:12;100416.31;;;-7.46;87.99
53932;BME280;39844;52.496;13.482;2022-12-15T03:09:38;100420.72;;;-7.43;88.19
53932;BME280;39844;52.496;13.482;2022-12-15T03:12:04;100424.44;;;-7.38;88.98
53932;BME280;39844;52.496;13.482;2022-12-15T03:14:29;100429.91;;;-7.32;89.25
53932;BME280;39844;52.496;13.482;2022-12-15T03:16:55;100435.47;;;-7.25;89.90
53932;BME280;39844;52.496;13.482;2022-12-15T03:19:20;100432.41;;;-7.19;89.83
53932;BME280;39844;52.496;13.482;2022-12-15T03:21:46;100439.47;;;-7.15;89.45
53932;BME280;39844;52.496;13.482;2022-12-15T03:24:14;100427.75;;;-7.12;89.04
53932;BME280;39844;52.496;13.482;2022-12-15T03:26:39;100433.31;;;-7.04;89.56
53932;BME280;39844;52.496;13.482;2022-12-15T03:29:05;100431.94;;;-6.99;89.57
53932;BME280;39844;52.496;13.482;2022-12-15T03:31:30;100429.56;;;-6.96;88.94
53932;BME280;39844;52.496;13.482;2022-12-15T03:33:55;100429.84;;;-6.91;89.19
53932;BME280;39844;52.496;13.482;2022-12-15T03:36:21;100423.38;;;-6.86;89.46
53932;BME280;39844;52.496;13.482;2022-12-15T03:38:47;100426.00;;;-6.85;89.18
53932;BME280;39844;52.496;13.482;2022-12-15T03:41:12;100429.53;;;-6.83;89.17
53932;BME280;39844;52.496;13.482;2022-12-15T03:43:38;100425.50;;;-6.79;89.58
53932;BME280;39844;52.496;13.482;2022-12-15T03:46:03;100423.03;;;-6.78;89.16
53932;BME280;39844;52.496;13.482;2022-12-15T03:48:28;100416.06;;;-6.80;88.55
53932;BME280;39844;52.496;13.482;2022-12-15T03:50:54;100425.31;;;-6.82;88.19
53932;BME280;39844;52.496;13.482;2022-12-15T03:53:19;100435.25;;;-6.87;87.75
53932;BME280;39844;52.496;13.482;2022-12-15T03:55:44;100422.09;;;-6.93;87.41
53932;BME280;39844;52.496;13.482;2022-12-15T03:58:10;100433.72;;;-6.98;87.34
53932;BME280;39844;52.496;13.482;2022-12-15T04:00:35;100444.53;;;-7.02;86.84
53932;BME280;39844;52.496;13.482;2022-12-15T04:03:01;100438.06;;;-7.10;86.41
53932;BME280;39844;52.496;13.482;2022-12-15T04:05:28;100452.47;;;-7.11;86.96
53932;BME280;39844;52.496;13.482;2022-12-15T04:07:56;100450.56;;;-7.15;86.94
53932;BME280;39844;52.496;13.482;2022-12-15T04:10:23;100451.25;;;-7.17;86.75
53932;BME280;39844;52.496;13.482;2022-12-15T04:12:55;100454.56;;;-7.18;86.70
53932;BME280;39844;52.496;13.482;2022-12-15T04:15:21;100447.63;;;-7.21;86.64
53932;BME280;39844;52.496;13.482;2022-12-15T04:17:46;100448.31;;;-7.23;86.58
53932;BME280;39844;52.496;13.482;2022-12-15T04:20:11;100455.00;;;-7.25;86.43
53932;BME280;39844;52.496;13.482;2022-12-15T04:22:39;100459.13;;;-7.27;86.38
53932;BME280;39844;52.496;13.482;2022-12-15T04:25:06;100460.66;;;-7.29;86.57
53932;BME280;39844;52.496;13.482;2022-12-15T04:27:32;100461.34;;;-7.32;86.14
53932;BME280;39844;52.496;13.482;2022-12-15T04:29:57;100468.03;;;-7.34;86.50
53932;BME280;39844;52.496;13.482;2022-12-15T04:32:22;100473.81;;;-7.36;85.86
53932;BME280;39844;52.496;13.482;2022-12-15T04:34:48;100473.63;;;-7.39;85.73
53932;BME280;39844;52.496;13.482;2022-12-15T04:37:13;100470.78;;;-7.44;85.71
53932;BME280;39844;52.496;13.482;2022-12-15T04:39:41;100475.00;;;-7.44;86.18
53932;BME280;39844;52.496;13.482;2022-12-15T04:42:08;100485.19;;;-7.44;86.43
53932;BME280;39844;52.496;13.482;2022-12-15T04:44:33;100480.91;;;-7.45;86.42
53932;BME280;39844;52.496;13.482;2022-12-15T04:46:59;100487.84;;;-7.43;87.07
53932;BME280;39844;52.496;13.482;2022-12-15T04:49:24;100492.06;;;-7.43;86.79
53932;BME280;39844;52.496;13.482;2022-12-15T04:51:49;100492.28;;;-7.40;87.28
53932;BME280;39844;52.496;13.482;2022-12-15T04:54:14;100494.63;;;-7.43;86.19
53932;BME280;39844;52.496;13.482;2022-12-15T04:56:40;100498.06;;;-7.43;86.51
53932;BME280;39844;52.496;13.482;2022-12-15T04:59:05;100492.97;;;-7.43;87.20
53932;BME280;39844;52.496;13.482;2022-12-15T05:01:31;100497.94;;;-7.44;86.81
53932;BME280;39844;52.496;13.482;2022-12-15T05:03:56;100506.28;;;-7.47;86.80
53932;BME280;39844;52.496;13.482;2022-12-15T05:06:22;100516.25;;;-7.50;86.93
53932;BME280;39844;52.496;13.482;2022-12-15T05:08:47;100520.31;;;-7.53;86.54
53932;BME280;39844;52.496;13.482;2022-12-15T05:11:12;100523.41;;;-7.57;86.33
53932;BME280;39844;52.496;13.482;2022-12-15T05:13:37;100530.00;;;-7.61;86.35
53932;BME280;39844;52.496;13.482;2022-12-15T05:16:04;100530.56;;;-7.65;86.08
53932;BME280;39844;52.496;13.482;2022-12-15T05:18:29;100539.69;;;-7.68;86.69
53932;BME280;39844;52.496;13.482;2022-12-15T05:20:57;100534.59;;;-7.68;86.97
53932;BME280;39844;52.496;13.482;2022-12-15T05:23:22;100532.16;;;-7.67;87.38
53932;BME280;39844;52.496;13.482;2022-12-15T05:25:47;100538.13;;;-7.66;87.21
53932;BME280;39844;52.496;13.482;2022-12-15T05:28:13;100531.94;;;-7.70;87.05
53932;BME280;39844;52.496;13.482;2022-12-15T05:30:38;100541.34;;;-7.69;88.24
53932;BME280;39844;52.496;13.482;2022-12-15T05:33:04;100537.25;;;-7.67;88.51
53932;BME280;39844;52.496;13.482;2022-12-15T05:35:30;100543.22;;;-7.66;88.52
53932;BME280;39844;52.496;13.482;2022-12-15T05:37:55;100537.03;;;-7.70;88.27
53932;BME280;39844;52.496;13.482;2022-12-15T05:40:20;100545.28;;;-7.74;88.79
53932;BME280;39844;52.496;13.482;2022-12-15T05:42:46;100555.16;;;-7.79;89.38
53932;BME280;39844;52.496;13.482;2022-12-15T05:45:11;100554.38;;;-7.78;90.43
53932;BME280;39844;52.496;13.482;2022-12-15T05:47:36;100551.06;;;-7.77;91.06
53932;BME280;39844;52.496;13.482;2022-12-15T05:50:02;100557.25;;;-7.73;91.44
53932;BME280;39844;52.496;13.482;2022-12-15T05:52:27;100554.09;;;-7.69;91.72
53932;BME280;39844;52.496;13.482;2022-12-15T05:54:52;100556.94;;;-7.64;91.74
53932;BME280;39844;52.496;13.482;2022-12-15T05:57:18;100560.28;;;-7.65;91.06
53932;BME280;39844;52.496;13.482;2022-12-15T05:59:43;100579.09;;;-7.63;91.21
53932;BME280;39844;52.496;13.482;2022-12-15T06:02:08;100566.44;;;-7.62;91.21
53932;BME280;39844;52.496;13.482;2022-12-15T06:04:33;100584.56;;;-7.57;91.61
53932;BME280;39844;52.496;13.482;2022-12-15T06:06:59;100577.94;;;-7.55;91.17
53932;BME280;39844;52.496;13.482;2022-12-15T06:09:24;100589.66;;;-7.57;91.09
53932;BME280;39844;52.496;13.482;2022-12-15T06:11:49;100587.31;;;-7.54;91.52
53932;BME280;39844;52.496;13.482;2022-12-15T06:14:15;100616.44;;;-7.51;92.00
53932;BME280;39844;52.496;13.482;2022-12-15T06:16:40;100616.66;;;-7.48;92.53
53932;BME280;39844;52.496;13.482;2022-12-15T06:19:05;100615.06;;;-7.46;92.75
53932;BME280;39844;52.496;13.482;2022-12-15T06:21:33;100599.09;;;-7.43;92.73
53932;BME280;39844;52.496;13.482;2022-12-15T06:23:58;100587.13;;;-7.44;92.27
53932;BME280;39844;52.496;13.482;2022-12-15T06:26:28;100608.19;;;-7.47;91.84
53932;BME280;39844;52.496;13.482;2022-12-15T06:28:56;100600.66;;;-7.45;91.58
53932;BME280;39844;52.496;13.482;2022-12-15T06:31:22;100604.75;;;-7.47;90.75
53932;BME280;39844;52.496;13.482;2022-12-15T06:33:48;100614.66;;;-7.52;89.74
53932;BME280;39844;52.496;13.482;2022-12-15T06:36:15;100606.94;;;-7.53;89.63
53932;BME280;39844;52.496;13.482;2022-12-15T06:38:41;100610.84;;;-7.58;88.50
53932;BME280;39844;52.496;13.482;2022-12-15T06:41:09;100615.66;;;-7.63;88.22
53932;BME280;39844;52.496;13.482;2022-12-15T06:43:35;100612.22;;;-7.63;88.20
53932;BME280;39844;52.496;13.482;2022-12-15T06:46:01;100618.66;;;-7.68;87.74
53932;BME280;39844;52.496;13.482;2022-12-15T06:48:26;100618.38;;;-7.73;87.35
53932;BME280;39844;52.496;13.482;2022-12-15T06:50:52;100616.50;;;-7.76;87.21
53932;BME280;39844;52.496;13.482;2022-12-15T06:53:20;100617.06;;;-7.80;87.09
53932;BME280;39844;52.496;13.482;2022-12-15T06:55:46;100621.25;;;-7.80;87.21
53932;BME280;39844;52.496;13.482;2022-12-15T06:58:12;100621.94;;;-7.83;87.12
53932;BME280;39844;52.496;13.482;2022-12-15T07:00:38;100634.59;;;-7.84;87.25
53932;BME280;39844;52.496;13.482;2022-12-15T07:03:15;100641.13;;;-7.88;86.90
53932;BME280;39844;52.496;13.482;2022-12-15T07:05:41;100645.25;;;-7.90;86.97
53932;BME280;39844;52.496;13.482;2022-12-15T07:08:08;100650.47;;;-7.88;87.35
53932;BME280;39844;52.496;13.482;2022-12-15T07:10:37;100659.75;;;-7.89;87.56
53932;BME280;39844;52.496;13.482;2022-12-15T07:13:02;100654.75;;;-7.87;87.51
53932;BME280;39844;52.496;13.482;2022-12-15T07:15:28;100663.06;;;-7.90;86.74
53932;BME280;39844;52.496;13.482;2022-12-15T07:17:54;100673.03;;;-7.93;86.64
53932;BME280;39844;52.496;13.482;2022-12-15T07:20:19;100677.16;;;-7.95;86.72
53932;BME280;39844;52.496;13.482;2022-12-15T07:22:49;100684.03;;;-7.94;87.18
53932;BME280;39844;52.496;13.482;2022-12-15T07:25:14;100679.59;;;-7.96;87.05
53932;BME280;39844;52.496;13.482;2022-12-15T07:27:40;100677.16;;;-7.95;87.33
53932;BME280;39844;52.496;13.482;2022-12-15T07:30:06;100692.34;;;-7.96;87.04
53932;BME280;39844;52.496;13.482;2022-12-15T07:32:31;100696.63;;;-7.95;87.25
53932;BME280;39844;52.496;13.482;2022-12-15T07:34:56;100698.31;;;-7.96;87.31
53932;BME280;39844;52.496;13.482;2022-12-15T07:37:22;100708.38;;;-7.97;86.92
53932;BME280;39844;52.496;13.482;2022-12-15T07:39:47;100705.06;;;-7.96;87.11
53932;BME280;39844;52.496;13.482;2022-12-15T07:42:12;100711.81;;;-7.97;87.02
53932;BME280;39844;52.496;13.482;2022-12-15T07:44:38;100711.72;;;-7.98;86.44
53932;BME280;39844;52.496;13.482;2022-12-15T07:47:03;100711.81;;;-7.97;86.58
53932;BME280;39844;52.496;13.482;2022-12-15T07:49:28;100715.25;;;-7.96;86.17
53932;BME280;39844;52.496;13.482;2022-12-15T07:51:54;100716.16;;;-7.96;86.04
53932;BME280;39844;52.496;13.482;2022-12-15T07:54:19;100715.25;;;-7.96;85.75
53932;BME280;39844;52.496;13.482;2022-12-15T07:56:44;100721.25;;;-7.96;85.67
53932;BME280;39844;52.496;13.482;2022-12-15T07:59:09;100725.53;;;-7.95;85.43
53932;BME280;39844;52.496;13.482;2022-12-15T08:01:35;100728.06;;;-7.95;85.23
53932;BME280;39844;52.496;13.482;2022-12-15T08:04:00;100721.41;;;-7.93;84.97
53932;BME280;39844;52.496;13.482;2022-12-15T08:06:26;100724.19;;;-7.90;85.15
53932;BME280;39844;52.496;13.482;2022-12-15T08:08:51;100734.38;;;-7.90;84.83
53932;BME280;39844;52.496;13.482;2022-12-15T08:11:20;100734.38;;;-7.90;84.52
53932;BME280;39844;52.496;13.482;2022-12-15T08:13:46;100740.25;;;-7.91;84.38
53932;BME280;39844;52.496;13.482;2022-12-15T08:16:11;100745.91;;;-7.95;83.25
53932;BME280;39844;52.496;13.482;2022-12-15T08:18:37;100753.31;;;-7.98;83.81
53932;BME280;39844;52.496;13.482;2022-12-15T08:21:04;100756.09;;;-7.95;83.94
53932;BME280;39844;52.496;13.482;2022-12-15T08:23:30;100752.66;;;-7.95;83.57
53932;BME280;39844;52.496;13.482;2022-12-15T08:26:03;100747.78;;;-7.92;84.09
53932;BME280;39844;52.496;13.482;2022-12-15T08:28:29;100757.28;;;-7.90;83.50
53932;BME280;39844;52.496;13.482;2022-12-15T08:30:54;100747.31;;;-7.87;83.89
53932;BME280;39844;52.496;13.482;2022-12-15T08:33:20;100757.50;;;-7.87;83.46
53932;BME280;39844;52.496;13.482;2022-12-15T08:35:45;100767.09;;;-7.83;84.01
53932;BME280;39844;52.496;13.482;2022-12-15T08:38:10;100770.53;;;-7.82;83.83
53932;BME280;39844;52.496;13.482;2022-12-15T08:40:36;100770.97;;;-7.76;84.37
53932;BME280;39844;52.496;13.482;2022-12-15T08:43:01;100768.53;;;-7.75;84.19
53932;BME280;39844;52.496;13.482;2022-12-15T08:45:26;100765.31;;;-7.72;83.89
53932;BME280;39844;52.496;13.482;2022-12-15T08:47:52;100773.06;;;-7.71;83.73
53932;BME280;39844;52.496;13.482;2022-12-15T08:50:17;100770.69;;;-7.68;84.24
53932;BME280;39844;52.496;13.482;2022-12-15T08:52:42;100770.81;;;-7.66;83.75
53932;BME280;39844;52.496;13.482;2022-12-15T08:55:08;100777.78;;;-7.63;83.77
53932;BME280;39844;52.496;13.482;2022-12-15T08:57:34;100782.31;;;-7.59;84.00
53932;BME280;39844;52.496;13.482;2022-12-15T08:59:59;100777.44;;;-7.56;84.08
53932;BME280;39844;52.496;13.482;2022-12-15T09:02:24;100782.06;;;-7.51;83.81
53932;BME280;39844;52.496;13.482;2022-12-15T09:04:50;100775.47;;;-7.47;84.08
53932;BME280;39844;52.496;13.482;2022-12-15T09:07:15;100777.47;;;-7.43;84.45
53932;BME280;39844;52.496;13.482;2022-12-15T09:09:41;100772.81;;;-7.37;84.65
53932;BME280;39844;52.496;13.482;2022-12-15T09:12:10;100790.81;;;-7.34;84.45
53932;BME280;39844;52.496;13.482;2022-12-15T09:14:36;100790.28;;;-7.30;84.58
53932;BME280;39844;52.496;13.482;2022-12-15T09:17:01;100779.59;;;-7.25;84.96
53932;BME280;39844;52.496;13.482;2022-12-15T09:19:26;100783.44;;;-7.18;85.12
53932;BME280;39844;52.496;13.482;2022-12-15T09:21:52;100787.38;;;-7.10;85.58
53932;BME280;39844;52.496;13.482;2022-12-15T09:24:17;100792.88;;;-7.04;85.40
53932;BME280;39844;52.496;13.482;2022-12-15T09:26:42;100790.66;;;-6.99;85.55
53932;BME280;39844;52.496;13.482;2022-12-15T09:29:10;100796.03;;;-6.95;85.19
53932;BME280;39844;52.496;13.482;2022-12-15T09:31:36;100800.66;;;-6.89;85.06
53932;BME280;39844;52.496;13.482;2022-12-15T09:34:02;100802.75;;;-6.84;85.19
53932;BME280;39844;52.496;13.482;2022-12-15T09:36:28;100799.59;;;-6.80;85.16
53932;BME280;39844;52.496;13.482;2022-12-15T09:38:54;100793.13;;;-6.75;85.32
53932;BME280;39844;52.496;13.482;2022-12-15T09:41:27;100784.00;;;-6.71;84.99
53932;BME280;39844;52.496;13.482;2022-12-15T09:49:01;100786.25;;;-6.63;84.43
53932;BME280;39844;52.496;13.482;2022-12-15T09:51:39;100797.63;;;-6.58;84.39
53932;BME280;39844;52.496;13.482;2022-12-15T09:54:09;100788.63;;;-6.53;84.71
53932;BME280;39844;52.496;13.482;2022-12-15T09:56:43;100796.69;;;-6.47;84.62
53932;BME280;39844;52.496;13.482;2022-12-15T09:59:40;100804.91;;;-6.37;84.96
53932;BME280;39844;52.496;13.482;2022-12-15T10:02:22;100796.88;;;-6.30;84.75
53932;BME280;39844;52.496;13.482;2022-12-15T10:05:29;100802.34;;;-6.24;84.62
53932;BME280;39844;52.496;13.482;2022-12-15T10:07:57;100794.28;;;-6.17;84.74
53932;BME280;39844;52.496;13.482;2022-12-15T10:12:56;100789.97;;;-6.05;84.72
53932;BME280;39844;52.496;13.482;2022-12-15T10:15:24;100794.53;;;-6.00;84.79
53932;BME280;39844;52.496;13.482;2022-12-15T10:18:10;100798.38;;;-5.93;85.14
53932;BME280;39844;52.496;13.482;2022-12-15T10:20:41;100788.00;;;-5.82;85.53
53932;BME280;39844;52.496;13.482;2022-12-15T10:23:12;100792.78;;;-5.73;85.37
53932;BME280;39844;52.496;13.482;2022-12-15T10:25:38;100800.41;;;-5.60;85.86
53932;BME280;39844;52.496;13.482;2022-12-15T10:33:56;100794.16;;;-5.23;85.67
53932;BME280;39844;52.496;13.482;2022-12-15T10:36:25;100790.19;;;-5.18;84.59
53932;BME280;39844;52.496;13.482;2022-12-15T10:38:50;100787.91;;;-5.13;84.54
53932;BME280;39844;52.496;13.482;2022-12-15T10:41:18;100794.28;;;-5.06;84.51
53932;BME280;39844;52.496;13.482;2022-12-15T10:43:46;100791.28;;;-4.99;84.45
53932;BME280;39844;52.496;13.482;2022-12-15T10:46:22;100790.06;;;-4.91;84.30
53932;BME280;39844;52.496;13.482;2022-12-15T10:51:26;100798.25;;;-4.82;83.27
53932;BME280;39844;52.496;13.482;2022-12-15T10:54:03;100794.38;;;-4.76;83.64
53932;BME280;39844;52.496;13.482;2022-12-15T10:56:30;100802.66;;;-4.65;83.96
53932;BME280;39844;52.496;13.482;2022-12-15T10:58:59;100803.97;;;-4.57;83.47
53932;BME280;39844;52.496;13.482;2022-12-15T11:01:31;100792.16;;;-4.55;82.46
53932;BME280;39844;52.496;13.482;2022-12-15T11:03:57;100791.47;;;-4.53;82.71
53932;BME280;39844;52.496;13.482;2022-12-15T11:06:27;100795.16;;;-4.47;83.04
53932;BME280;39844;52.496;13.482;2022-12-15T11:08:55;100800.44;;;-4.44;83.00
53932;BME280;39844;52.496;13.482;2022-12-15T11:11:31;100809.44;;;-4.36;83.48
53932;BME280;39844;52.496;13.482;2022-12-15T11:14:05;100821.16;;;-4.25;83.63
53932;BME280;39844;52.496;13.482;2022-12-15T11:16:43;100826.09;;;-4.14;83.59
53932;BME280;39844;52.496;13.482;2022-12-15T11:19:28;100820.66;;;-4.04;83.69
53932;BME280;39844;52.496;13.482;2022-12-15T11:22:00;100816.38;;;-3.89;83.71
53932;BME280;39844;52.496;13.482;2022-12-15T11:24:49;100811.59;;;-3.83;83.01
53932;BME280;39844;52.496;13.482;2022-12-15T11:27:23;100823.63;;;-3.81;82.54
53932;BME280;39844;52.496;13.482;2022-12-15T11:29:53;100816.06;;;-3.78;82.51
53932;BME280;39844;52.496;13.482;2022-12-15T11:32:24;100816.19;;;-3.77;82.23
53932;BME280;39844;52.496;13.482;2022-12-15T11:34:50;100816.41;;;-3.72;82.17
53932;BME280;39844;52.496;13.482;2022-12-15T11:54:27;100816.44;;;-3.24;81.52
53932;BME280;39844;52.496;13.482;2022-12-15T11:57:27;100816.06;;;-3.15;81.24
53932;BME280;39844;52.496;13.482;2022-12-15T12:00:02;100813.16;;;-3.05;81.48
53932;BME280;39844;52.496;13.482;2022-12-15T12:07:46;100801.50;;;-2.83;80.52
53932;BME280;39844;52.496;13.482;2022-12-15T12:13:29;100799.59;;;-2.69;80.68
53932;BME280;39844;52.496;13.482;2022-12-15T12:19:08;100787.59;;;-2.52;80.16
53932;BME280;39844;52.496;13.482;2022-12-15T12:21:38;100792.88;;;-2.49;79.03
53932;BME280;39844;52.496;13.482;2022-12-15T12:24:12;100776.00;;;-2.44;79.67
53932;BME280;39844;52.496;13.482;2022-12-15T12:29:33;100781.50;;;-2.19;77.96
53932;BME280;39844;52.496;13.482;2022-12-15T12:35:48;100786.25;;;-1.72;75.23
53932;BME280;39844;52.496;13.482;2022-12-15T12:38:04;100786.56;;;-1.66;74.75
53932;BME280;39844;52.496;13.482;2022-12-15T12:43:04;100797.03;;;-1.81;75.02
53932;BME280;39844;52.496;13.482;2022-12-15T12:48:07;100801.84;;;-2.06;75.84
53932;BME280;39844;52.496;13.482;2022-12-15T12:50:38;100810.03;;;-2.13;76.62
53932;BME280;39844;52.496;13.482;2022-12-15T12:53:03;100806.38;;;-2.18;76.79
53932;BME280;39844;52.496;13.482;2022-12-15T12:55:41;100809.63;;;-2.22;77.26
53932;BME280;39844;52.496;13.482;2022-12-15T12:58:33;100817.28;;;-2.24;77.83
53932;BME280;39844;52.496;13.482;2022-12-15T13:03:28;100823.28;;;-2.23;78.12
53932;BME280;39844;52.496;13.482;2022-12-15T13:05:54;100818.13;;;-2.23;78.25
53932;BME280;39844;52.496;13.482;2022-12-15T13:08:46;100813.81;;;-2.24;78.12
53932;BME280;39844;52.496;13.482;2022-12-15T13:14:24;100818.38;;;-2.19;78.44
53932;BME280;39844;52.496;13.482;2022-12-15T13:16:55;100808.94;;;-2.18;78.64
53932;BME280;39844;52.496;13.482;2022-12-15T13:22:36;100808.16;;;-2.17;78.49
53932;BME280;39844;52.496;13.482;2022-12-15T13:25:40;100814.09;;;-2.18;78.56
53932;BME280;39844;52.496;13.482;2022-12-15T13:31:13;100801.38;;;-2.15;78.85
53932;BME280;39844;52.496;13.482;2022-12-15T13:46:50;100809.78;;;-2.19;78.72
53932;BME280;39844;52.496;13.482;2022-12-15T13:49:26;100811.41;;;-2.21;78.77
53932;BME280;39844;52.496;13.482;2022-12-15T13:51:59;100815.66;;;-2.22;79.00
53932;BME280;39844;52.496;13.482;2022-12-15T13:54:38;100813.88;;;-2.23;79.26
53932;BME280;39844;52.496;13.482;2022-12-15T13:57:17;100814.75;;;-2.22;79.57
53932;BME280;39844;52.496;13.482;2022-12-15T13:59:45;100813.09;;;-2.22;79.25
53932;BME280;39844;52.496;13.482;2022-12-15T14:02:34;100808.72;;;-2.23;79.47
53932;BME280;39844;52.496;13.482;2022-12-15T14:05:18;100809.63;;;-2.22;79.51
53932;BME280;39844;52.496;13.482;2022-12-15T14:07:46;100807.84;;;-2.23;79.73
53932;BME280;39844;52.496;13.482;2022-12-15T14:10:40;100801.84;;;-2.24;79.48
53932;BME280;39844;52.496;13.482;2022-12-15T14:13:11;100810.34;;;-2.25;79.67
53932;BME280;39844;52.496;13.482;2022-12-15T14:15:42;100805.94;;;-2.27;79.57
53932;BME280;39844;52.496;13.482;2022-12-15T14:20:46;100810.63;;;-2.36;79.74
53932;BME280;39844;52.496;13.482;2022-12-15T14:26:07;100816.13;;;-2.46;80.15
53932;BME280;39844;52.496;13.482;2022-12-15T14:28:35;100809.88;;;-2.51;80.10
53932;BME280;39844;52.496;13.482;2022-12-15T14:31:03;100815.63;;;-2.57;80.21
53932;BME280;39844;52.496;13.482;2022-12-15T14:33:32;100821.34;;;-2.63;80.53